Terminal Aerodrome Forecast
Issued by NWS

Home | Current Version | Previous Version | Text Only | Print | Product List | Glossary On
Versions: 1 2 3 4 5 6 7 8 9 10 11 12
000
FTUS43 KIWX 250524
TAFSBN
TAF
KSBN 250524Z 2506/2606 26012KT P6SM BKN060
     FM250900 30011KT P6SM BKN020
     FM251500 31013G23KT P6SM BKN035
     FM260100 32007KT P6SM SCT035=

USA.gov is the U.S. government's official web portal to all federal, state and local government web resources and services.